Time;durP1;ratioP1;P1;durP2;ratioP2;P2;SDS_P1;SDS_P2;PMS_P1;PMS_P2;Temp;Humidity;BMP_temperature;BMP_pressure;BME280_temperature;BME280_humidity;BME280_pressure;Samples;Min_cycle;Max_cycle;Signal;HPM_P1;HPM_P2
2022/12/02 00:01:47;;;;;;;23.80;14.83;;;;;;;1.39;86.23;101672.75;1715321;81;21031;-76
2022/12/02 00:04:27;;;;;;;23.83;15.00;;;;;;;1.38;86.19;101674.86;1706393;83;21069;-75
2022/12/02 00:06:56;;;;;;;23.77;14.80;;;;;;;1.38;86.18;101681.32;1707013;83;21019;-75
2022/12/02 00:09:35;;;;;;;23.57;15.17;;;;;;;1.37;86.18;101671.84;1706417;83;21721;-75
2022/12/02 00:12:25;;;;;;;22.53;14.50;;;;;;;1.33;86.05;101668.30;1706670;83;21911;-75
2022/12/02 00:15:00;;;;;;;24.52;16.45;;;;;;;1.31;86.20;101661.83;1706685;83;21000;-74
2022/12/02 00:17:27;;;;;;;21.63;15.07;;;;;;;1.30;86.21;101660.48;1715155;83;21032;-76
2022/12/02 00:19:54;;;;;;;22.40;14.43;;;;;;;1.29;86.26;101668.66;1706401;83;21557;-75
2022/12/02 00:22:21;;;;;;;21.40;13.90;;;;;;;1.27;86.19;101661.29;1706631;83;21119;-75
2022/12/02 00:24:48;;;;;;;21.80;14.87;;;;;;;1.25;86.16;101655.25;1706440;83;21041;-75
2022/12/02 00:27:15;;;;;;;22.87;14.17;;;;;;;1.24;86.10;101658.64;1706576;83;21020;-76
2022/12/02 00:29:42;;;;;;;23.33;15.37;;;;;;;1.25;86.26;101658.25;1706428;83;21458;-75
2022/12/02 00:32:09;;;;;;;23.83;14.27;;;;;;;1.25;86.23;101652.66;1706683;83;21039;-75
2022/12/02 00:34:36;;;;;;;23.67;15.00;;;;;;;1.25;86.29;101652.66;1706387;83;21036;-75
2022/12/02 00:37:04;;;;;;;19.07;13.27;;;;;;;1.26;86.26;101652.23;1732470;81;21108;-75
2022/12/02 00:39:31;;;;;;;22.27;14.30;;;;;;;1.26;86.43;101646.64;1717232;83;21034;-75
2022/12/02 00:41:59;;;;;;;24.83;14.57;;;;;;;1.30;86.47;101648.47;1721451;82;21075;-76
2022/12/02 00:47:11;;;;;;;23.47;16.00;;;;;;;1.30;86.31;101643.70;1723409;82;21034;-74
2022/12/02 00:49:38;;;;;;;24.20;15.27;;;;;;;1.26;86.26;101653.10;1720751;82;21133;-76
2022/12/02 00:52:05;;;;;;;24.07;15.43;;;;;;;1.25;86.28;101654.37;1726778;82;21016;-75
2022/12/02 00:54:32;;;;;;;24.47;15.80;;;;;;;1.24;86.45;101648.31;1715723;82;21038;-75
2022/12/02 00:57:00;;;;;;;25.90;15.90;;;;;;;1.25;86.33;101647.92;1720303;82;21073;-75
2022/12/02 00:59:27;;;;;;;25.83;16.43;;;;;;;1.24;86.38;101640.99;1706223;82;21033;-75
2022/12/02 01:01:54;;;;;;;26.10;16.53;;;;;;;1.22;86.39;101644.86;1707599;82;21147;-76
2022/12/02 01:04:22;;;;;;;23.77;16.10;;;;;;;1.21;86.38;101643.09;1727808;81;21040;-75
2022/12/02 01:06:49;;;;;;;25.67;16.17;;;;;;;1.19;86.32;101636.14;1726712;82;21046;-75
2022/12/02 01:09:16;;;;;;;25.43;16.23;;;;;;;1.19;86.37;101632.27;1723056;82;21030;-75
2022/12/02 01:11:43;;;;;;;23.53;16.00;;;;;;;1.19;86.48;101628.01;1730782;82;21027;-76
2022/12/02 01:14:10;;;;;;;24.00;16.10;;;;;;;1.21;86.58;101630.60;1723802;82;21116;-75
2022/12/02 01:16:37;;;;;;;25.93;16.73;;;;;;;1.23;86.79;101627.64;1713803;82;21004;-75
2022/12/02 01:19:04;;;;;;;29.30;18.10;;;;;;;1.25;86.74;101624.25;1720448;82;22029;-75
2022/12/02 01:21:31;;;;;;;26.63;16.97;;;;;;;1.25;86.55;101628.55;1723018;82;21067;-75
2022/12/02 01:23:58;;;;;;;23.80;16.47;;;;;;;1.21;86.47;101626.73;1723193;82;21039;-75
2022/12/02 01:26:26;;;;;;;27.40;18.03;;;;;;;1.21;86.77;101618.55;1723066;82;21122;-75
2022/12/02 01:28:53;;;;;;;28.37;18.50;;;;;;;1.22;86.70;101619.03;1723050;82;21525;-74
2022/12/02 01:31:20;;;;;;;26.97;17.23;;;;;;;1.22;86.66;101620.71;1711182;82;21532;-75
2022/12/02 01:33:47;;;;;;;26.97;18.27;;;;;;;1.22;86.71;101618.12;1723145;82;21118;-75
2022/12/02 01:36:14;;;;;;;29.80;18.90;;;;;;;1.22;86.70;101616.84;1707859;82;21001;-75
2022/12/02 01:38:41;;;;;;;29.77;19.33;;;;;;;1.19;86.55;101619.36;1706120;82;21126;-75
2022/12/02 01:41:09;;;;;;;28.77;18.97;;;;;;;1.18;86.64;101621.50;1720663;82;21107;-75
2022/12/02 01:43:36;;;;;;;30.03;18.90;;;;;;;1.15;86.60;101621.44;1715659;82;20986;-76
2022/12/02 01:46:03;;;;;;;31.30;18.73;;;;;;;1.14;86.73;101620.58;1719229;82;21106;-75
2022/12/02 01:48:30;;;;;;;30.07;19.67;;;;;;;1.15;86.83;101618.86;1723303;82;21004;-75
2022/12/02 01:50:58;;;;;;;31.27;20.23;;;;;;;1.16;86.87;101620.16;1729335;82;21110;-75
2022/12/02 01:53:25;;;;;;;31.27;19.80;;;;;;;1.16;86.75;101624.46;1732792;82;21478;-75
2022/12/02 01:55:53;;;;;;;29.87;20.17;;;;;;;1.14;86.68;101627.03;1706338;82;21081;-75
2022/12/02 01:58:27;;;;;;;32.17;19.10;;;;;;;1.14;86.84;101620.58;1718505;82;21007;-75
2022/12/02 02:00:55;;;;;;;32.07;19.27;;;;;;;1.13;86.77;101622.69;1717238;82;21454;-75
2022/12/02 02:03:23;;;;;;;29.33;18.03;;;;;;;1.11;86.83;101622.67;1707987;82;21303;-75
2022/12/02 02:05:50;;;;;;;26.47;18.13;;;;;;;1.12;86.80;101628.70;1718741;82;21082;-75
2022/12/02 02:08:18;;;;;;;30.77;19.67;;;;;;;1.11;86.91;101623.96;1738040;82;20999;-75
2022/12/02 02:10:46;;;;;;;28.67;18.30;;;;;;;1.11;86.90;101626.55;1739442;80;21499;-75
2022/12/02 02:13:16;;;;;;;26.83;18.67;;;;;;;1.13;86.98;101620.10;1738121;82;21010;-76
2022/12/02 02:15:44;;;;;;;31.03;18.87;;;;;;;1.15;87.00;101619.73;1738103;80;21116;-75
2022/12/02 02:18:14;;;;;;;27.90;17.80;;;;;;;1.17;87.03;101620.64;1735648;80;20955;-75
2022/12/02 02:20:41;;;;;;;29.23;18.70;;;;;;;1.20;87.11;101618.11;1731498;82;21043;-75
2022/12/02 02:23:19;;;;;;;29.50;18.93;;;;;;;1.24;87.23;101619.91;1728245;82;21254;-75
2022/12/02 02:25:51;;;;;;;31.87;19.03;;;;;;;1.27;87.14;101625.13;1740990;81;21034;-75
2022/12/02 02:28:23;;;;;;;31.97;20.03;;;;;;;1.25;86.92;101619.52;1743215;81;21134;-74
2022/12/02 02:30:53;;;;;;;;;;;;;;;1.20;86.81;101615.53;1730553;81;20987;-75
2022/12/02 02:33:22;;;;;;;32.13;19.13;;;;;;;1.20;86.89;101619.41;1742742;80;20154;-75
2022/12/02 02:35:50;;;;;;;30.90;18.30;;;;;;;1.20;86.93;101619.41;1748058;81;21015;-75
2022/12/02 02:38:21;;;;;;;27.53;18.37;;;;;;;1.18;86.73;101620.21;1732720;81;21322;-76
2022/12/02 02:40:50;;;;;;;27.60;17.43;;;;;;;1.16;86.70;101621.45;1713906;83;21111;-76
2022/12/02 02:43:19;;;;;;;31.43;19.13;;;;;;;1.12;86.73;101627.41;1728995;82;20971;-75
2022/12/02 02:45:48;;;;;;;;;;;;;;;1.10;86.64;101623.48;1729252;82;21046;-75
2022/12/02 02:48:17;;;;;;;31.83;18.63;;;;;;;1.08;86.76;101626.48;1724961;82;20191;-75
2022/12/02 02:50:47;;;;;;;30.82;17.50;;;;;;;1.06;86.65;101626.86;1726125;82;21053;-75
2022/12/02 02:53:17;;;;;;;27.85;17.07;;;;;;;1.01;86.62;101625.88;1726986;82;21199;-75
2022/12/02 02:55:45;;;;;;;27.83;17.40;;;;;;;0.99;86.62;101627.55;1730942;82;21022;-76
2022/12/02 02:58:19;;;;;;;27.23;17.27;;;;;;;0.96;86.67;101631.79;1726973;82;21401;-75
2022/12/02 03:00:58;;;;;;;29.87;18.93;;;;;;;0.95;86.71;101626.19;1715283;82;21008;-75
2022/12/02 03:03:30;;;;;;;27.30;17.07;;;;;;;0.95;86.86;101624.47;1726173;82;21022;-75
2022/12/02 03:06:00;;;;;;;28.80;17.60;;;;;;;0.94;86.99;101620.55;1726091;82;21112;-75
2022/12/02 03:08:30;;;;;;;29.72;17.77;;;;;;;0.95;87.17;101612.84;1728752;82;21022;-75
2022/12/02 03:11:01;;;;;;;29.23;17.55;;;;;;;0.98;87.20;101610.75;1728085;82;21022;-76
2022/12/02 03:13:30;;;;;;;;;;;;;;;0.97;87.30;101602.54;1734240;82;21078;-75
2022/12/02 03:15:58;;;;;;;31.40;17.97;;;;;;;0.98;87.25;101603.02;1719219;82;20486;-75
2022/12/02 03:18:25;;;;;;;30.87;18.17;;;;;;;0.97;87.41;101602.54;1715315;82;21532;-75
2022/12/02 03:20:52;;;;;;;29.17;18.33;;;;;;;0.98;87.33;101600.00;1731347;82;20980;-75
2022/12/02 03:23:19;;;;;;;29.70;17.90;;;;;;;0.97;87.29;101593.11;1714476;82;21030;-75
2022/12/02 03:25:47;;;;;;;29.43;18.03;;;;;;;0.96;87.42;101593.06;1730293;81;21018;-75
2022/12/02 03:28:14;;;;;;;31.67;18.00;;;;;;;0.97;87.28;101585.76;1711690;82;21011;-75
2022/12/02 03:30:42;;;;;;;29.67;18.27;;;;;;;0.89;87.11;101586.91;1722801;82;21184;-75
2022/12/02 03:33:09;;;;;;;29.37;17.33;;;;;;;0.88;87.27;101585.15;1717368;82;21075;-75
2022/12/02 03:35:36;;;;;;;29.00;17.50;;;;;;;0.86;87.20;101579.11;1723789;82;21043;-75
2022/12/02 03:38:03;;;;;;;28.27;17.03;;;;;;;0.84;87.24;101579.48;1737307;82;21042;-75
2022/12/02 03:40:31;;;;;;;26.90;16.97;;;;;;;0.83;87.24;101578.62;1724977;82;21305;-75
2022/12/02 03:42:58;;;;;;;28.03;16.97;;;;;;;0.81;87.26;101576.41;1731064;82;21487;-75
2022/12/02 03:45:25;;;;;;;28.40;16.33;;;;;;;0.82;87.35;101573.41;1723249;82;21019;-75
2022/12/02 03:47:52;;;;;;;26.47;16.47;;;;;;;0.78;87.24;101566.45;1727886;82;21600;-74
2022/12/02 03:50:20;;;;;;;26.37;15.93;;;;;;;0.76;87.40;101567.70;1731686;82;21602;-76
2022/12/02 03:52:48;;;;;;;27.60;15.97;;;;;;;0.77;87.53;101562.11;1728258;82;21464;-75
2022/12/02 03:55:15;;;;;;;26.63;15.93;;;;;;;0.77;87.53;101569.42;1719827;82;21135;-76
2022/12/02 03:57:42;;;;;;;26.63;15.77;;;;;;;0.77;87.51;101564.27;1738172;81;21474;-75
2022/12/02 04:00:11;;;;;;;27.77;15.63;;;;;;;0.76;87.47;101562.95;1726947;82;21539;-75
2022/12/02 04:02:41;;;;;;;24.57;14.60;;;;;;;0.74;87.46;101559.46;1729914;81;21034;-75
2022/12/02 04:05:09;;;;;;;25.30;14.17;;;;;;;0.72;87.47;101559.45;1724341;83;21284;-75
2022/12/02 04:07:36;;;;;;;27.90;15.60;;;;;;;0.74;87.55;101559.46;1730708;82;21100;-75
2022/12/02 04:10:05;;;;;;;25.70;15.20;;;;;;;0.74;87.62;101554.30;1724840;82;20994;-75
2022/12/02 04:12:32;;;;;;;28.07;16.17;;;;;;;0.73;87.55;101556.44;1730721;82;21078;-75
2022/12/02 04:14:59;;;;;;;25.50;14.27;;;;;;;0.72;87.61;101558.16;1730928;82;21054;-75
2022/12/02 04:17:26;;;;;;;24.50;14.67;;;;;;;0.71;87.46;101559.41;1728889;82;21030;-75
2022/12/02 04:19:54;;;;;;;23.93;14.83;;;;;;;0.71;87.66;101569.30;1713023;82;21113;-76
2022/12/02 04:22:21;;;;;;;23.93;14.77;;;;;;;0.70;87.56;101566.28;1724619;82;20912;-75
2022/12/02 04:24:48;;;;;;;25.77;14.80;;;;;;;0.70;87.60;101567.56;1725191;82;20929;-75
2022/12/02 04:27:15;;;;;;;24.17;14.67;;;;;;;0.70;87.60;101568.86;1725408;82;21027;-75
2022/12/02 04:29:42;;;;;;;25.63;14.53;;;;;;;0.68;87.45;101567.94;1725173;82;21024;-75
2022/12/02 04:32:09;;;;;;;25.17;15.70;;;;;;;0.67;87.47;101566.21;1720306;82;21064;-75
2022/12/02 04:34:36;;;;;;;26.37;15.90;;;;;;;0.68;87.53;101564.50;1726876;82;21039;-75
2022/12/02 04:37:03;;;;;;;25.73;15.67;;;;;;;0.66;87.47;101558.00;1726661;82;21017;-75
2022/12/02 04:39:30;;;;;;;24.90;15.83;;;;;;;0.64;87.49;101565.72;1724535;82;21496;-75
2022/12/02 04:41:57;;;;;;;31.10;17.23;;;;;;;0.64;87.57;101557.98;1731005;82;21549;-76
2022/12/02 04:44:24;;;;;;;27.30;15.90;;;;;;;0.64;87.61;101560.98;1711152;82;21492;-75
2022/12/02 04:46:51;;;;;;;27.80;15.77;;;;;;;0.64;87.55;101555.83;1725221;82;22225;-75
2022/12/02 04:49:18;;;;;;;31.73;17.47;;;;;;;0.63;87.67;101562.67;1731377;82;20992;-75
2022/12/02 04:51:45;;;;;;;27.20;16.80;;;;;;;0.63;87.63;101565.25;1715933;82;21084;-77
2022/12/02 04:54:12;;;;;;;29.27;16.93;;;;;;;0.64;87.67;101562.28;1716240;82;20987;-76
2022/12/02 04:56:39;;;;;;;32.30;17.97;;;;;;;0.62;87.65;101557.50;1725112;82;21937;-76
2022/12/02 04:59:06;;;;;;;28.57;17.50;;;;;;;0.63;87.63;101557.51;1721645;82;21551;-76
2022/12/02 05:01:33;;;;;;;32.67;17.83;;;;;;;0.62;87.68;101553.20;1710042;82;21077;-76
2022/12/02 05:04:00;;;;;;;27.07;17.03;;;;;;;0.63;87.70;101560.52;1729768;82;21054;-76
2022/12/02 05:06:27;;;;;;;29.20;17.60;;;;;;;0.63;87.91;101563.95;1727420;82;21018;-76
2022/12/02 05:08:54;;;;;;;31.13;17.73;;;;;;;0.62;87.76;101560.08;1730034;82;22102;-75
2022/12/02 05:11:21;;;;;;;31.17;19.60;;;;;;;0.61;87.87;101559.60;1727267;82;21492;-76
2022/12/02 05:13:48;;;;;;;28.70;17.90;;;;;;;0.60;87.88;101563.89;1726558;82;21003;-75
2022/12/02 05:16:15;;;;;;;29.93;18.33;;;;;;;0.60;87.87;101572.92;1731686;82;21035;-76
2022/12/02 05:18:42;;;;;;;30.70;18.60;;;;;;;0.60;87.77;101574.22;1727677;82;21499;-76
2022/12/02 05:21:09;;;;;;;35.03;18.27;;;;;;;0.59;87.85;101575.48;1731538;82;21590;-76
2022/12/02 05:23:37;;;;;;;28.93;16.57;;;;;;;0.56;87.74;101575.00;1731583;82;21054;-76
2022/12/02 05:26:04;;;;;;;26.00;16.17;;;;;;;0.55;87.71;101580.11;1729614;82;20998;-76
2022/12/02 05:28:31;;;;;;;30.47;16.80;;;;;;;0.52;87.68;101577.04;1713992;82;21076;-76
2022/12/02 05:30:58;;;;;;;26.80;15.63;;;;;;;0.51;87.72;101574.02;1737713;82;21011;-76
2022/12/02 05:33:25;;;;;;;28.30;17.20;;;;;;;0.51;87.74;101578.31;1739546;81;21114;-75
2022/12/02 05:35:53;;;;;;;26.47;14.97;;;;;;;0.50;87.83;101577.45;1754220;81;21021;-75
2022/12/02 05:38:20;;;;;;;25.53;15.90;;;;;;;0.49;88.02;101577.39;1752221;81;21607;-76
2022/12/02 05:40:47;;;;;;;24.70;15.43;;;;;;;0.51;88.25;101574.02;1718438;82;21075;-76
2022/12/02 05:43:26;;;;;;;27.37;15.10;;;;;;;0.52;88.20;101579.62;1731273;81;21032;-75
2022/12/02 05:45:57;;;;;;;24.57;14.70;;;;;;;0.53;88.38;101576.22;1734224;81;21140;-75
2022/12/02 05:48:25;;;;;;;24.47;15.03;;;;;;;0.57;88.35;101571.57;1731576;81;21026;-75
2022/12/02 05:50:53;;;;;;;24.83;15.53;;;;;;;0.58;88.38;101574.62;1716005;82;21047;-76
2022/12/02 05:53:25;;;;;;;30.50;15.77;;;;;;;0.58;88.36;101578.49;1727218;82;21022;-76
2022/12/02 05:55:54;;;;;;;24.50;14.33;;;;;;;0.58;88.35;101582.36;1712099;82;21009;-75
2022/12/02 05:58:22;;;;;;;22.77;14.47;;;;;;;0.58;88.34;101577.20;1726898;82;21095;-76
2022/12/02 06:00:59;;;;;;;24.93;14.37;;;;;;;0.60;88.28;101586.25;1731908;82;21042;-76
2022/12/02 06:03:26;;;;;;;24.87;14.30;;;;;;;0.60;88.39;101583.67;1734818;82;21446;-75
2022/12/02 06:05:54;;;;;;;22.73;13.40;;;;;;;0.60;88.32;101590.12;1730508;82;21070;-75
2022/12/02 06:08:29;;;;;;;24.03;13.70;;;;;;;0.61;88.41;101587.59;1719522;82;21468;-75
2022/12/02 06:11:03;;;;;;;21.00;13.23;;;;;;;0.65;88.48;101592.39;1719160;82;21746;-75
2022/12/02 06:13:36;;;;;;;23.40;13.10;;;;;;;0.62;88.44;101588.45;1718016;82;21032;-74
2022/12/02 06:16:06;;;;;;;22.43;13.17;;;;;;;0.60;88.27;101584.96;1723444;82;21019;-76
2022/12/02 06:18:35;;;;;;;22.93;11.97;;;;;;;0.56;88.28;101587.90;1729441;82;26751;-77
2022/12/02 06:21:06;;;;;;;24.47;13.70;;;;;;;0.54;88.19;101593.86;1724263;82;21031;-79
2022/12/02 06:23:33;;;;;;;22.13;12.37;;;;;;;0.46;88.00;101590.23;1729082;82;21149;-80
2022/12/02 06:26:00;;;;;;;19.10;11.33;;;;;;;0.41;88.21;101592.27;1729281;82;21488;-80
2022/12/02 06:28:39;;;;;;;20.77;11.83;;;;;;;0.39;88.37;101594.38;1702975;82;21039;-80
2022/12/02 06:31:17;;;;;;;19.37;11.50;;;;;;;0.37;88.43;101601.20;1724942;82;20988;-81
2022/12/02 06:33:48;;;;;;;21.90;11.27;;;;;;;0.35;88.43;101602.86;1719221;82;21534;-78
2022/12/02 06:36:26;;;;;;;19.20;10.93;;;;;;;0.30;88.62;101607.90;1721343;82;21126;-78
2022/12/02 06:38:58;;;;;;;20.10;10.80;;;;;;;0.30;88.86;101605.75;1722659;82;21075;-79
2022/12/02 06:41:35;;;;;;;19.63;11.00;;;;;;;0.27;88.80;101605.25;1720562;82;21024;-76
2022/12/02 06:47:01;;;;;;;22.50;11.50;;;;;;;0.22;88.85;101601.68;1721804;82;21040;-77
2022/12/02 06:49:37;;;;;;;18.48;10.55;;;;;;;0.21;89.00;101607.27;1722895;82;21454;-76
2022/12/02 06:52:10;;;;;;;20.33;11.93;;;;;;;0.21;89.25;101603.39;1722516;82;21015;-76
2022/12/02 06:54:39;;;;;;;22.23;12.13;;;;;;;0.23;89.38;101600.00;1719496;82;21024;-76
2022/12/02 06:57:09;;;;;;;19.43;11.60;;;;;;;0.23;89.45;101605.16;1723807;82;21422;-73
2022/12/02 06:59:36;;;;;;;21.02;11.80;;;;;;;0.21;89.39;101599.95;1720440;82;21465;-79
2022/12/02 07:02:07;;;;;;;23.90;12.83;;;;;;;0.21;89.50;101599.53;1716287;82;21152;-76
2022/12/02 07:04:47;;;;;;;22.20;12.00;;;;;;;0.18;89.25;101598.59;1710856;82;22060;-77
2022/12/02 07:07:25;;;;;;;21.55;12.33;;;;;;;0.16;89.57;101595.09;1715223;82;21536;-77
2022/12/02 07:10:02;;;;;;;23.60;11.47;;;;;;;0.15;89.53;101602.39;1720497;82;21375;-78
2022/12/02 07:12:44;;;;;;;23.37;11.47;;;;;;;0.14;89.64;101605.78;1724854;82;21007;-76
2022/12/02 07:15:25;;;;;;;24.57;11.77;;;;;;;0.13;89.76;101608.78;1718843;82;21199;-77
2022/12/02 07:17:54;;;;;;;21.87;11.63;;;;;;;0.14;89.87;101606.67;1722590;82;21042;-75
2022/12/02 07:20:38;;;;;;;22.37;12.37;;;;;;;0.17;89.97;101613.20;1727040;82;21035;-79
2022/12/02 07:23:17;;;;;;;19.80;11.30;;;;;;;0.16;89.92;101613.14;1720681;82;21079;-78
2022/12/02 07:25:52;;;;;;;21.47;11.67;;;;;;;0.18;89.99;101610.19;1717639;82;21028;-76
2022/12/02 07:28:39;;;;;;;20.20;11.17;;;;;;;0.18;89.85;101612.77;1720344;82;21135;-81
2022/12/02 07:31:23;;;;;;;23.03;11.77;;;;;;;0.18;89.90;101611.06;1725162;82;20987;-78
2022/12/02 07:33:51;;;;;;;19.03;10.53;;;;;;;0.18;89.94;101609.77;1719345;82;21028;-76
2022/12/02 07:36:19;;;;;;;19.20;11.43;;;;;;;0.19;89.77;101605.48;1717487;82;21305;-80
2022/12/02 07:38:46;;;;;;;19.33;11.20;;;;;;;0.18;89.65;101605.91;1750761;81;21161;-80
2022/12/02 07:41:14;;;;;;;18.27;10.93;;;;;;;0.16;89.53;101609.27;1722803;82;21585;-80
2022/12/02 07:43:41;;;;;;;16.47;10.23;;;;;;;0.14;89.34;101612.22;1727364;82;21011;-79
2022/12/02 07:46:09;;;;;;;15.17;9.77;;;;;;;0.11;89.18;101612.14;1728669;82;20905;-78
2022/12/02 07:48:36;;;;;;;17.60;10.03;;;;;;;0.10;89.09;101609.13;1732148;82;21068;-80
2022/12/02 07:51:04;;;;;;;18.90;11.13;;;;;;;0.08;88.92;101614.66;1724957;82;21082;-78
2022/12/02 07:53:31;;;;;;;18.10;9.97;;;;;;;0.07;89.04;101617.66;1720268;82;21147;-81
2022/12/02 07:55:58;;;;;;;18.27;11.13;;;;;;;0.07;89.02;101613.79;1724947;82;21007;-80
2022/12/02 07:58:25;;;;;;;20.97;11.33;;;;;;;0.09;89.05;101621.16;1721646;82;21067;-80
2022/12/02 08:00:52;;;;;;;21.03;12.10;;;;;;;0.09;88.82;101619.86;1720282;82;21015;-79
2022/12/02 08:03:19;;;;;;;19.10;12.20;;;;;;;0.08;88.66;101618.09;1720584;82;21043;-79
2022/12/02 08:05:46;;;;;;;19.20;11.70;;;;;;;0.04;88.54;101618.87;1713862;82;21088;-80
2022/12/02 08:08:14;;;;;;;18.00;11.77;;;;;;;-0.01;88.39;101622.61;1700111;83;21071;-79
2022/12/02 08:10:41;;;;;;;19.27;11.93;;;;;;;-0.02;88.52;101622.16;1710866;83;21533;-78
2022/12/02 08:13:08;;;;;;;19.03;11.53;;;;;;;-0.04;88.51;101622.53;1702296;83;21023;-79
2022/12/02 08:15:35;;;;;;;20.63;12.67;;;;;;;-0.02;88.67;101617.42;1692055;83;21020;-81
2022/12/02 08:18:02;;;;;;;20.20;12.30;;;;;;;0.02;88.87;101617.08;1705518;83;21796;-80
2022/12/02 08:20:31;;;;;;;20.37;12.50;;;;;;;0.05;88.78;101618.45;1695102;83;21028;-79
2022/12/02 08:22:59;;;;;;;20.63;12.77;;;;;;;0.03;88.71;101619.72;1706903;83;21047;-81
2022/12/02 08:25:26;;;;;;;20.33;12.87;;;;;;;0.04;88.58;101621.87;1713935;83;21493;-76
2022/12/02 08:27:53;;;;;;;19.80;12.00;;;;;;;0.05;88.67;101616.73;1709270;82;21091;-79
2022/12/02 08:30:20;;;;;;;21.73;13.40;;;;;;;0.06;88.69;101618.50;1692118;83;21093;-80
2022/12/02 08:32:47;;;;;;;19.77;13.03;;;;;;;0.09;88.75;101616.00;1706091;83;21506;-74
2022/12/02 08:35:15;;;;;;;20.60;12.87;;;;;;;0.11;88.66;101615.63;1702322;83;22018;-80
2022/12/02 08:37:42;;;;;;;23.37;13.53;;;;;;;0.12;88.53;101613.91;1699299;83;21044;-80
2022/12/02 08:40:10;;;;;;;23.00;13.87;;;;;;;0.09;88.33;101615.12;1710358;83;21511;-81
2022/12/02 08:42:37;;;;;;;19.60;13.07;;;;;;;0.10;88.37;101614.28;1710642;83;21490;-81
2022/12/02 08:45:05;;;;;;;22.03;13.80;;;;;;;0.07;88.26;101612.50;1693099;83;21956;-80
2022/12/02 08:47:33;;;;;;;22.33;14.00;;;;;;;0.08;88.26;101615.94;1702907;83;21099;-76
2022/12/02 08:50:00;;;;;;;23.67;14.97;;;;;;;0.06;88.19;101613.34;1692274;83;21119;-78
2022/12/02 08:52:27;;;;;;;27.33;15.40;;;;;;;0.05;88.14;101618.45;1705518;83;21039;-78
2022/12/02 08:54:57;;;;;;;26.80;16.17;;;;;;;0.02;88.02;101617.08;1697014;83;21223;-78
2022/12/02 08:57:24;;;;;;;25.60;15.72;;;;;;;-0.01;88.04;101625.19;1707768;83;21040;-77
2022/12/02 08:59:52;;;;;;;27.93;15.83;;;;;;;-0.04;88.10;101630.27;1698528;83;21469;-80
2022/12/02 09:02:19;;;;;;;25.87;13.67;;;;;;;-0.04;88.13;101621.66;1691978;83;21016;-79
2022/12/02 09:04:47;;;;;;;25.23;15.03;;;;;;;-0.03;88.31;101624.69;1700321;83;21031;-79
2022/12/02 09:07:14;;;;;;;28.73;15.30;;;;;;;0.01;88.43;101629.10;1728530;82;21185;-80
2022/12/02 09:09:42;;;;;;;23.87;14.90;;;;;;;0.02;88.26;101624.39;1718719;82;21020;-77
2022/12/02 09:12:09;;;;;;;29.33;16.33;;;;;;;0.05;88.29;101623.60;1729765;82;21070;-77
2022/12/02 09:14:36;;;;;;;28.50;15.83;;;;;;;0.08;88.31;101630.98;1723134;82;21390;-80
2022/12/02 09:17:03;;;;;;;28.77;16.70;;;;;;;0.10;88.29;101631.04;1730911;82;21082;-76
2022/12/02 09:19:31;;;;;;;26.73;16.20;;;;;;;0.11;88.32;101622.46;1726121;82;21575;-78
2022/12/02 09:21:58;;;;;;;30.27;17.40;;;;;;;0.10;88.15;101622.02;1723068;82;21507;-79
2022/12/02 09:24:25;;;;;;;30.33;16.47;;;;;;;0.12;88.24;101624.23;1720228;82;21059;-80
2022/12/02 09:26:52;;;;;;;29.20;15.90;;;;;;;0.12;88.06;101625.09;1723531;82;21007;-79
2022/12/02 09:29:20;;;;;;;31.53;18.20;;;;;;;0.13;88.19;101613.06;1723974;82;21078;-80
2022/12/02 09:31:47;;;;;;;27.90;16.53;;;;;;;0.11;87.97;101615.63;1725245;82;21750;-81
2022/12/02 09:34:14;;;;;;;36.50;19.90;;;;;;;0.11;88.01;101610.86;1723629;82;21004;-78
2022/12/02 09:36:41;;;;;;;30.80;17.80;;;;;;;0.12;88.10;101616.49;1732330;82;21039;-75
2022/12/02 09:39:09;;;;;;;35.60;19.47;;;;;;;0.15;88.22;101615.27;1724429;82;21039;-79
2022/12/02 09:41:37;;;;;;;32.77;17.53;;;;;;;0.18;88.18;101616.22;1720568;82;21032;-77
2022/12/02 09:44:05;;;;;;;34.37;19.40;;;;;;;0.20;88.17;101609.40;1725275;82;21763;-79
2022/12/02 09:46:33;;;;;;;35.23;18.60;;;;;;;0.20;88.04;101605.53;1721184;82;20999;-79
2022/12/02 09:49:00;;;;;;;32.73;18.27;;;;;;;0.21;88.07;101605.11;1726054;82;21073;-80
2022/12/02 09:51:28;;;;;;;33.63;19.67;;;;;;;0.20;87.89;101610.69;1722221;82;21019;-80
2022/12/02 09:53:57;;;;;;;35.40;19.80;;;;;;;0.18;87.78;101612.34;1727738;82;21703;-78
2022/12/02 09:56:24;;;;;;;32.67;19.13;;;;;;;0.18;87.84;101612.77;1732073;82;21147;-75
2022/12/02 09:58:55;;;;;;;32.43;18.70;;;;;;;0.18;87.89;101606.33;1728788;82;21039;-79
2022/12/02 10:01:23;;;;;;;;;;;;;;;0.17;87.72;101606.75;1726066;82;21500;-78
2022/12/02 10:03:51;;;;;;;36.93;19.30;;;;;;;0.16;87.75;101610.56;1720711;82;20189;-77
2022/12/02 10:06:25;;;;;;;33.77;18.47;;;;;;;0.14;87.74;101609.64;1727440;81;22190;-79
2022/12/02 10:08:55;;;;;;;33.97;19.43;;;;;;;0.14;87.78;101607.97;1749305;81;21071;-79
2022/12/02 10:11:27;;;;;;;31.93;18.80;;;;;;;0.15;87.82;101611.41;1738502;82;21003;-80
2022/12/02 10:13:56;;;;;;;32.00;18.40;;;;;;;0.13;87.57;101605.33;1733475;82;21421;-79
2022/12/02 10:16:27;;;;;;;32.40;18.80;;;;;;;0.14;87.63;101603.20;1736130;82;21480;-79
2022/12/02 10:19:00;;;;;;;;;;;;;;;0.13;87.76;101603.63;1731548;81;21019;-77
2022/12/02 10:21:28;;;;;;;35.27;19.07;;;;;;;0.17;87.90;101596.86;1730226;81;21132;-80
2022/12/02 10:24:00;;;;;;;33.50;19.50;;;;;;;0.21;87.92;101600.81;1725857;82;21023;-78
2022/12/02 10:26:47;;;;;;;33.73;18.30;;;;;;;0.23;87.88;101597.42;1734475;82;21071;-80
2022/12/02 10:29:28;;;;;;;33.50;19.37;;;;;;;0.27;87.95;101596.23;1724116;82;21027;-80
2022/12/02 10:32:03;;;;;;;34.40;19.90;;;;;;;0.30;87.73;101603.16;1738189;82;21042;-79
2022/12/02 10:34:33;;;;;;;34.93;20.07;;;;;;;0.27;87.54;101598.80;1732492;82;21954;-79
2022/12/02 10:37:25;;;;;;;34.97;19.30;;;;;;;0.23;87.46;101598.29;1736885;81;21019;-79
2022/12/02 10:40:20;;;;;;;35.17;19.70;;;;;;;0.22;87.43;101595.23;1732121;82;22362;-78
2022/12/02 10:42:49;;;;;;;34.93;18.70;;;;;;;0.17;87.33;101588.70;1734158;82;21054;-77
2022/12/02 10:45:23;;;;;;;35.40;18.67;;;;;;;0.18;87.50;101594.72;1718587;82;21082;-79
2022/12/02 10:47:53;;;;;;;34.93;19.63;;;;;;;0.21;87.63;101590.50;1734078;82;21125;-79
2022/12/02 10:50:24;;;;;;;33.02;18.23;;;;;;;0.23;87.52;101590.55;1721332;82;21539;-77
2022/12/02 10:52:56;;;;;;;33.27;18.97;;;;;;;0.25;87.53;101585.42;1734195;82;21018;-79
2022/12/02 10:55:25;;;;;;;29.43;16.53;;;;;;;0.25;87.36;101586.70;1738192;82;21480;-78
2022/12/02 10:57:54;;;;;;;27.33;16.27;;;;;;;0.27;87.42;101596.65;1734594;82;21083;-79
2022/12/02 11:00:25;;;;;;;27.43;16.90;;;;;;;0.27;87.36;101596.23;1731947;82;21064;-79
2022/12/02 11:02:54;;;;;;;28.17;15.73;;;;;;;;;;1734665;82;21365;-77
2022/12/02 11:05:27;;;;;;;25.83;15.33;;;;;;;;;;1735623;82;21456;-76
2022/12/02 11:07:59;;;;;;;25.97;15.50;;;;;;;0.15;86.97;101594.65;1738568;81;21042;-79
2022/12/02 11:10:35;;;;;;;27.70;16.90;;;;;;;0.14;87.05;101589.92;1732257;82;21038;-80
2022/12/02 11:13:16;;;;;;;26.00;15.67;;;;;;;0.15;86.99;101587.78;1735519;82;21138;-80
2022/12/02 11:15:52;;;;;;;29.23;16.53;;;;;;;0.11;86.90;101584.69;1737752;82;21038;-79
2022/12/02 11:18:39;;;;;;;31.47;17.73;;;;;;;0.10;86.89;101590.66;1739621;82;21034;-79
2022/12/02 11:21:12;;;;;;;29.20;15.50;;;;;;;0.08;86.88;101590.16;1737342;82;21914;-80
2022/12/02 11:23:39;;;;;;;24.63;15.43;;;;;;;0.08;86.79;101586.30;1733178;82;21624;-79
2022/12/02 11:26:13;;;;;;;29.53;17.00;;;;;;;0.08;87.02;101582.01;1737774;82;21203;-78
2022/12/02 11:28:51;;;;;;;28.07;16.60;;;;;;;0.11;87.00;101581.21;1733671;82;21500;-78
2022/12/02 11:31:22;;;;;;;30.80;17.77;;;;;;;0.09;86.96;101577.33;1744522;81;21067;-79
2022/12/02 11:34:00;;;;;;;27.00;16.97;;;;;;;0.09;87.08;101579.91;1733563;82;20988;-80
2022/12/02 11:36:30;;;;;;;30.13;17.40;;;;;;;0.10;86.96;101574.33;1736379;82;21518;-81